Historyczne dane pomiarowe

Dodano dane terminowe – wersja testowa.

Dane z okresu 1951-2019

Wersja bazy: 1.34 [2019-03-16, lista zmian], aktualizacja planowana na 2019-04-15

Dane meteo z obszaru Polski uzyskane na podstawie danych udostępnionych przez Instytut Meteorologii i Gospodarki Wodnej – Państwowy Instytut Badawczy.

 

Wybierz Datę:    

       

TemperaturaWilgotnośćWiatrCiśnienieOpadyŚniegCzas trwania zjawisk
 Stacja t tx tn tng RH VA  wxwx mslp ppp RRR   cm mm wxwxwxwxwxwxwx
1987-08-14 13.9 21.1 6.0- 70.8- 5.7 2.3---- 0.7------------
1987-08-13 13.1 19.0 6.0- 64.3- 5.0 2.3---- 0.0------------
1987-08-12 12.5 18.0 5.6- 65.0- 4.7 3.0---- 0.0------------
1987-08-11 14.2 18.1 11.0- 64.5- 6.7 2.7---- 1.7------------
1987-08-10 15.1 20.2 13.1- 76.8- 5.3 2.3---- 12.5------------
1987-08-09 15.6 24.0 7.0- 56.5- 2.7 2.0---- 0.0------------
1987-08-08 13.5 20.0 8.0- 60.5- 2.7 2.0---- 0.0------------
1987-08-07 11.3 17.0 3.7- 63.5- 3.7 2.3---- 0.0------------
1987-08-06 11.2 16.0 9.0- 70.8- 6.3 2.7---- 0.0------------
1987-08-05 12.6 17.0 9.0- 72.5- 8.0 2.7---- 1.3------------
1987-08-04 13.3 19.0 9.0- 77.5- 6.3 2.3---- 1.9------------
1987-08-03 15.5 20.4 10.7- 71.8- 4.0 2.7---- 0.0------------
1987-08-02 15.8 19.0 13.7- 68.3- 5.0 2.3---- 6.4------------
1987-08-01 15.3 22.2 7.7- 73.5- 3.7 2.7---- 0.4------------
1987-07-31 15.7 22.0 12.0- 75.3- 8.0 2.3---- 7.0------------
1987-07-30 17.7 24.0 11.1- 60.3- 3.0 2.7---- 0.2------------
1987-07-29 14.0 20.0 8.0- 68.0- 5.7 1.7---- 0.0------------
1987-07-28 13.7 17.0 11.0- 76.3- 7.3 2.0---- 1.5------------
1987-07-27 13.4 18.4 8.6- 58.5- 4.3 2.3---- 0.0------------
1987-07-26 14.4 22.7 11.5- 83.3- 8.0 1.3---- 13.1------------
1987-07-25 19.6 23.6 14.4- 69.0- 4.7 3.0---- 0.0------------
1987-07-24 20.8 29.3 16.6- 74.8- 5.0 2.0---- 6.7------------
1987-07-23 21.5 27.0 15.1- 66.5- 1.3 2.3---- 1.3------------
1987-07-22 20.7 25.4 13.7- 68.5- 3.0 2.3---- 0.0------------
1987-07-21 21.0 27.4 13.1- 67.5- 0.7 2.0---- 0.0------------
1987-07-20 21.7 26.0 17.4- 72.0- 3.0 2.3---- 0.0------------
1987-07-19 23.5 31.1 15.7- 68.3- 2.7 2.3---- 0.5------------
1987-07-18 23.3 30.5 14.5- 70.3- 1.0 2.0---- 0.0------------
1987-07-17 21.8 29.6 14.6- 65.5- 5.3 1.7---- 0.0------------
1987-07-16 19.1 28.0 11.1- 71.5- 4.0 1.7---- 0.0------------
1987-07-15 15.9 23.4 7.0- 68.5- 0.0 2.3---- 0.0------------
1987-07-14 17.3 21.5 13.3- 62.3- 2.3 3.0---- 0.0------------
1987-07-13 19.5 27.1 14.4- 72.8- 4.7 1.3---- 0.0------------
1987-07-12 20.7 30.0 9.8- 59.3- 1.3 3.0---- 10.5------------
1987-07-11 16.8 26.0 8.0- 58.8- 1.0 2.7---- 0.0------------
1987-07-10 16.1 20.4 9.4- 58.3- 2.3 2.7---- 0.0------------
1987-07-09 16.6 25.6 11.4- 77.8- 6.7 1.7---- 4.2------------
1987-07-08 20.8 30.0 10.0- 55.0- 0.0 2.0---- 0.0------------
1987-07-07 17.6 26.0 7.0- 55.8- 0.0 2.0---- 0.0------------
1987-07-06 16.2 21.3 9.0- 65.5- 0.3 3.0---- 0.0------------
1987-07-05 15.0 19.6 13.1- 82.5- 8.0 2.0---- 1.2------------
1987-07-04 18.6 22.0 14.1- 76.0- 6.7 2.0---- 2.5------------
1987-07-03 18.7 21.4 16.0- 73.8- 6.3 2.3---- 0.0------------
1987-07-02 20.5 28.0 17.6- 78.5- 5.7 1.7---- 0.0------------
1987-07-01 24.4 30.6 16.6- 67.5- 1.7 2.0---- 0.0------------
1987-06-30 21.9 29.5 14.1- 71.0- 0.7 2.3---- 0.0------------
1987-06-29 20.8 25.8 15.6- 72.8- 2.7 2.0---- 0.0------------
1987-06-28 19.2 25.1 12.7- 66.3- 4.3 2.3---- 0.2------------
1987-06-27 16.7 24.4 14.1- 81.8- 5.3 2.3---- 30.6------------
1987-06-26 16.0 24.4 6.0- 62.0- 1.3 3.0---- 0.0------------
1987-06-25 15.1 18.0 13.6- 75.0- 6.3 3.0---- 0.2------------
1987-06-24 15.6 22.0 10.5- 70.8- 4.7 2.0---- 1.8------------
1987-06-23 16.9 20.5 14.1- 69.0- 5.7 2.3---- 0.0------------
1987-06-22 16.0 22.0 10.0- 73.0- 6.0 2.7---- 0.0------------
1987-06-21 15.2 23.0 6.2- 69.8- 3.3 3.0---- 0.0------------
1987-06-20 14.7 22.0 5.0- 58.3- 3.0 2.7---- 0.0------------
1987-06-19 11.5 16.0 4.8- 68.3- 3.3 2.3---- 0.6------------
1987-06-18 12.0 18.2 5.0- 63.8- 4.7 4.0---- 0.3------------
1987-06-17 10.8 15.1 6.6- 74.5- 7.3 3.0---- 0.0------------
1987-06-16 15.3 24.4 12.0- 71.3- 7.3 3.0---- 0.0------------
725.3 ms

 

Źródłem pochodzenia danych jest Instytut Meteorologii i Gospodarki Wodnej – Państwowy Instytut Badawczy. Dane Instytutu Meteorologii i Gospodarki Wodnej – Państwowego Instytutu Badawczego zostały przetworzone.

Dane źródłowe można odnaleźć na stronie https://dane.imgw.pl